sensor_id;sensor_type;location;lat;lon;timestamp;P1;durP1;ratioP1;P2;durP2;ratioP2
75280;SDS011;63874;47.230;39.620;2023-04-23T00:00:33;2.05;;;0.60;;
75280;SDS011;63874;47.230;39.620;2023-04-23T00:03:02;1.40;;;0.40;;
75280;SDS011;63874;47.230;39.620;2023-04-23T00:05:34;1.38;;;0.40;;
75280;SDS011;63874;47.230;39.620;2023-04-23T00:08:02;1.08;;;0.40;;
75280;SDS011;63874;47.230;39.620;2023-04-23T00:10:28;2.30;;;0.55;;
75280;SDS011;63874;47.230;39.620;2023-04-23T00:12:54;2.13;;;0.70;;
75280;SDS011;63874;47.230;39.620;2023-04-23T00:15:20;2.78;;;1.02;;
75280;SDS011;63874;47.230;39.620;2023-04-23T00:17:47;2.03;;;0.75;;
75280;SDS011;63874;47.230;39.620;2023-04-23T00:20:16;1.42;;;0.65;;
75280;SDS011;63874;47.230;39.620;2023-04-23T00:22:42;0.90;;;0.30;;
75280;SDS011;63874;47.230;39.620;2023-04-23T00:25:08;3.00;;;0.50;;
75280;SDS011;63874;47.230;39.620;2023-04-23T00:27:35;1.52;;;0.40;;
75280;SDS011;63874;47.230;39.620;2023-04-23T00:30:01;0.73;;;0.20;;
75280;SDS011;63874;47.230;39.620;2023-04-23T00:32:28;1.10;;;0.35;;
75280;SDS011;63874;47.230;39.620;2023-04-23T00:34:54;1.10;;;0.35;;
75280;SDS011;63874;47.230;39.620;2023-04-23T00:37:21;0.88;;;0.20;;
75280;SDS011;63874;47.230;39.620;2023-04-23T00:39:47;0.95;;;0.40;;
75280;SDS011;63874;47.230;39.620;2023-04-23T00:42:13;1.02;;;0.20;;
75280;SDS011;63874;47.230;39.620;2023-04-23T00:44:41;0.65;;;0.32;;
75280;SDS011;63874;47.230;39.620;2023-04-23T00:47:08;0.82;;;0.30;;
75280;SDS011;63874;47.230;39.620;2023-04-23T00:49:34;0.77;;;0.40;;
75280;SDS011;63874;47.230;39.620;2023-04-23T00:52:04;0.90;;;0.38;;
75280;SDS011;63874;47.230;39.620;2023-04-23T00:54:30;1.35;;;0.40;;
75280;SDS011;63874;47.230;39.620;2023-04-23T00:56:56;1.23;;;0.43;;
75280;SDS011;63874;47.230;39.620;2023-04-23T00:59:25;1.02;;;0.52;;
75280;SDS011;63874;47.230;39.620;2023-04-23T01:01:52;0.90;;;0.35;;
75280;SDS011;63874;47.230;39.620;2023-04-23T01:04:18;1.00;;;0.30;;
75280;SDS011;63874;47.230;39.620;2023-04-23T01:06:47;0.80;;;0.40;;
75280;SDS011;63874;47.230;39.620;2023-04-23T01:09:14;1.58;;;0.73;;
75280;SDS011;63874;47.230;39.620;2023-04-23T01:11:42;1.15;;;0.32;;
75280;SDS011;63874;47.230;39.620;2023-04-23T01:14:09;1.40;;;0.57;;
75280;SDS011;63874;47.230;39.620;2023-04-23T01:16:36;1.27;;;0.55;;
75280;SDS011;63874;47.230;39.620;2023-04-23T01:19:05;1.20;;;0.60;;
75280;SDS011;63874;47.230;39.620;2023-04-23T01:21:35;1.10;;;0.40;;
75280;SDS011;63874;47.230;39.620;2023-04-23T01:24:03;1.15;;;0.35;;
75280;SDS011;63874;47.230;39.620;2023-04-23T01:26:29;1.65;;;0.35;;
75280;SDS011;63874;47.230;39.620;2023-04-23T01:28:56;0.90;;;0.22;;
75280;SDS011;63874;47.230;39.620;2023-04-23T01:31:23;0.93;;;0.30;;
75280;SDS011;63874;47.230;39.620;2023-04-23T01:33:49;0.70;;;0.30;;
75280;SDS011;63874;47.230;39.620;2023-04-23T01:36:20;0.90;;;0.32;;
75280;SDS011;63874;47.230;39.620;2023-04-23T01:38:46;1.48;;;0.50;;
75280;SDS011;63874;47.230;39.620;2023-04-23T01:41:12;1.42;;;0.40;;
75280;SDS011;63874;47.230;39.620;2023-04-23T01:43:39;1.02;;;0.32;;
75280;SDS011;63874;47.230;39.620;2023-04-23T01:46:06;1.08;;;0.40;;
75280;SDS011;63874;47.230;39.620;2023-04-23T01:48:32;1.17;;;0.30;;
75280;SDS011;63874;47.230;39.620;2023-04-23T01:50:59;1.48;;;0.40;;
75280;SDS011;63874;47.230;39.620;2023-04-23T01:53:25;1.83;;;0.73;;
75280;SDS011;63874;47.230;39.620;2023-04-23T01:55:51;1.92;;;0.60;;
75280;SDS011;63874;47.230;39.620;2023-04-23T01:58:19;1.13;;;0.60;;
75280;SDS011;63874;47.230;39.620;2023-04-23T02:00:47;1.25;;;0.40;;
75280;SDS011;63874;47.230;39.620;2023-04-23T02:03:16;1.58;;;0.50;;
75280;SDS011;63874;47.230;39.620;2023-04-23T02:05:43;1.52;;;1.02;;
75280;SDS011;63874;47.230;39.620;2023-04-23T02:08:09;1.42;;;0.63;;
75280;SDS011;63874;47.230;39.620;2023-04-23T02:10:36;0.90;;;0.30;;
75280;SDS011;63874;47.230;39.620;2023-04-23T02:13:02;1.38;;;0.77;;
75280;SDS011;63874;47.230;39.620;2023-04-23T02:15:28;1.60;;;0.80;;
75280;SDS011;63874;47.230;39.620;2023-04-23T02:17:54;1.90;;;0.50;;
75280;SDS011;63874;47.230;39.620;2023-04-23T02:20:20;1.85;;;0.50;;
75280;SDS011;63874;47.230;39.620;2023-04-23T02:22:47;2.08;;;0.80;;
75280;SDS011;63874;47.230;39.620;2023-04-23T02:25:14;2.10;;;0.73;;
75280;SDS011;63874;47.230;39.620;2023-04-23T02:27:42;1.77;;;0.70;;
75280;SDS011;63874;47.230;39.620;2023-04-23T02:30:09;2.15;;;0.93;;
75280;SDS011;63874;47.230;39.620;2023-04-23T02:32:36;1.63;;;0.70;;
75280;SDS011;63874;47.230;39.620;2023-04-23T02:35:02;2.20;;;0.98;;
75280;SDS011;63874;47.230;39.620;2023-04-23T02:37:33;1.90;;;0.70;;
75280;SDS011;63874;47.230;39.620;2023-04-23T02:40:00;3.08;;;1.08;;
75280;SDS011;63874;47.230;39.620;2023-04-23T02:42:26;2.17;;;1.00;;
75280;SDS011;63874;47.230;39.620;2023-04-23T02:44:51;2.05;;;0.82;;
75280;SDS011;63874;47.230;39.620;2023-04-23T02:47:17;2.05;;;0.70;;
75280;SDS011;63874;47.230;39.620;2023-04-23T02:49:44;2.97;;;0.90;;
75280;SDS011;63874;47.230;39.620;2023-04-23T02:52:10;2.28;;;1.00;;
75280;SDS011;63874;47.230;39.620;2023-04-23T02:54:35;1.55;;;0.75;;
75280;SDS011;63874;47.230;39.620;2023-04-23T02:57:02;3.05;;;2.28;;
75280;SDS011;63874;47.230;39.620;2023-04-23T02:59:29;4.32;;;1.20;;
75280;SDS011;63874;47.230;39.620;2023-04-23T03:01:55;2.83;;;0.82;;
75280;SDS011;63874;47.230;39.620;2023-04-23T03:04:21;1.73;;;0.70;;
75280;SDS011;63874;47.230;39.620;2023-04-23T03:06:48;2.10;;;0.98;;
75280;SDS011;63874;47.230;39.620;2023-04-23T03:09:14;1.60;;;0.68;;
75280;SDS011;63874;47.230;39.620;2023-04-23T03:11:40;2.25;;;0.55;;
75280;SDS011;63874;47.230;39.620;2023-04-23T03:14:07;2.28;;;0.95;;
75280;SDS011;63874;47.230;39.620;2023-04-23T03:16:33;1.52;;;0.77;;
75280;SDS011;63874;47.230;39.620;2023-04-23T03:18:59;1.83;;;0.70;;
75280;SDS011;63874;47.230;39.620;2023-04-23T03:21:26;1.88;;;0.50;;
75280;SDS011;63874;47.230;39.620;2023-04-23T03:23:52;2.17;;;0.70;;
75280;SDS011;63874;47.230;39.620;2023-04-23T03:26:18;1.55;;;0.60;;
75280;SDS011;63874;47.230;39.620;2023-04-23T03:28:44;2.45;;;0.60;;
75280;SDS011;63874;47.230;39.620;2023-04-23T03:31:10;2.10;;;0.73;;
75280;SDS011;63874;47.230;39.620;2023-04-23T03:33:36;1.10;;;0.52;;
75280;SDS011;63874;47.230;39.620;2023-04-23T03:36:02;1.83;;;0.70;;
75280;SDS011;63874;47.230;39.620;2023-04-23T03:38:30;1.60;;;0.60;;
75280;SDS011;63874;47.230;39.620;2023-04-23T03:40:57;1.75;;;0.68;;
75280;SDS011;63874;47.230;39.620;2023-04-23T03:43:24;1.45;;;0.73;;
75280;SDS011;63874;47.230;39.620;2023-04-23T03:46:02;1.92;;;0.55;;
75280;SDS011;63874;47.230;39.620;2023-04-23T03:48:31;1.73;;;0.63;;
75280;SDS011;63874;47.230;39.620;2023-04-23T03:50:59;2.03;;;0.73;;
75280;SDS011;63874;47.230;39.620;2023-04-23T03:53:43;2.20;;;0.90;;
75280;SDS011;63874;47.230;39.620;2023-04-23T03:56:28;1.95;;;0.60;;
75280;SDS011;63874;47.230;39.620;2023-04-23T03:59:09;2.63;;;1.45;;
75280;SDS011;63874;47.230;39.620;2023-04-23T04:01:35;3.08;;;1.05;;
75280;SDS011;63874;47.230;39.620;2023-04-23T04:04:01;2.58;;;1.23;;
75280;SDS011;63874;47.230;39.620;2023-04-23T04:06:29;1.90;;;0.80;;
75280;SDS011;63874;47.230;39.620;2023-04-23T04:08:55;2.05;;;0.77;;
75280;SDS011;63874;47.230;39.620;2023-04-23T04:11:21;2.80;;;1.10;;
75280;SDS011;63874;47.230;39.620;2023-04-23T04:13:47;2.58;;;1.15;;
75280;SDS011;63874;47.230;39.620;2023-04-23T04:16:13;2.38;;;1.13;;
75280;SDS011;63874;47.230;39.620;2023-04-23T04:18:39;2.83;;;1.02;;
75280;SDS011;63874;47.230;39.620;2023-04-23T04:21:04;4.13;;;1.00;;
75280;SDS011;63874;47.230;39.620;2023-04-23T04:23:30;2.15;;;0.82;;
75280;SDS011;63874;47.230;39.620;2023-04-23T04:25:57;2.10;;;1.00;;
75280;SDS011;63874;47.230;39.620;2023-04-23T04:28:24;3.25;;;1.10;;
75280;SDS011;63874;47.230;39.620;2023-04-23T04:30:53;2.75;;;1.10;;
75280;SDS011;63874;47.230;39.620;2023-04-23T04:33:21;3.15;;;1.38;;
75280;SDS011;63874;47.230;39.620;2023-04-23T04:35:49;2.15;;;0.73;;
75280;SDS011;63874;47.230;39.620;2023-04-23T04:38:16;3.08;;;1.50;;
75280;SDS011;63874;47.230;39.620;2023-04-23T04:40:42;3.38;;;1.30;;
75280;SDS011;63874;47.230;39.620;2023-04-23T04:43:08;3.38;;;1.30;;
75280;SDS011;63874;47.230;39.620;2023-04-23T04:45:34;3.33;;;1.40;;
75280;SDS011;63874;47.230;39.620;2023-04-23T04:48:00;3.20;;;1.23;;
75280;SDS011;63874;47.230;39.620;2023-04-23T04:50:26;3.40;;;1.42;;
75280;SDS011;63874;47.230;39.620;2023-04-23T04:52:52;2.58;;;0.93;;
75280;SDS011;63874;47.230;39.620;2023-04-23T04:55:17;4.20;;;1.27;;
75280;SDS011;63874;47.230;39.620;2023-04-23T04:57:43;2.70;;;1.05;;
75280;SDS011;63874;47.230;39.620;2023-04-23T05:02:48;2.42;;;1.08;;
75280;SDS011;63874;47.230;39.620;2023-04-23T05:05:15;3.20;;;1.20;;
75280;SDS011;63874;47.230;39.620;2023-04-23T05:07:41;3.58;;;1.00;;
75280;SDS011;63874;47.230;39.620;2023-04-23T05:10:07;3.70;;;1.17;;
75280;SDS011;63874;47.230;39.620;2023-04-23T05:12:33;3.65;;;1.40;;
75280;SDS011;63874;47.230;39.620;2023-04-23T05:14:59;3.97;;;1.13;;
75280;SDS011;63874;47.230;39.620;2023-04-23T05:17:25;3.20;;;1.30;;
75280;SDS011;63874;47.230;39.620;2023-04-23T05:19:51;3.00;;;0.98;;
75280;SDS011;63874;47.230;39.620;2023-04-23T05:22:16;2.83;;;1.13;;
75280;SDS011;63874;47.230;39.620;2023-04-23T05:24:42;2.72;;;1.10;;
75280;SDS011;63874;47.230;39.620;2023-04-23T05:27:09;2.28;;;0.90;;
75280;SDS011;63874;47.230;39.620;2023-04-23T05:29:35;2.30;;;1.10;;
75280;SDS011;63874;47.230;39.620;2023-04-23T05:32:01;2.20;;;0.77;;
75280;SDS011;63874;47.230;39.620;2023-04-23T05:34:27;2.60;;;1.23;;
75280;SDS011;63874;47.230;39.620;2023-04-23T05:36:53;2.33;;;1.02;;
75280;SDS011;63874;47.230;39.620;2023-04-23T05:39:18;2.38;;;1.08;;
75280;SDS011;63874;47.230;39.620;2023-04-23T05:41:44;2.13;;;0.90;;
75280;SDS011;63874;47.230;39.620;2023-04-23T05:44:10;2.70;;;1.08;;
75280;SDS011;63874;47.230;39.620;2023-04-23T05:46:36;2.33;;;0.70;;
75280;SDS011;63874;47.230;39.620;2023-04-23T05:49:02;3.10;;;1.35;;
75280;SDS011;63874;47.230;39.620;2023-04-23T05:51:28;3.00;;;1.08;;
75280;SDS011;63874;47.230;39.620;2023-04-23T05:53:54;3.13;;;0.75;;
75280;SDS011;63874;47.230;39.620;2023-04-23T05:56:20;1.40;;;0.30;;
75280;SDS011;63874;47.230;39.620;2023-04-23T05:58:46;1.77;;;0.57;;
75280;SDS011;63874;47.230;39.620;2023-04-23T06:01:12;2.25;;;0.60;;
75280;SDS011;63874;47.230;39.620;2023-04-23T06:03:38;2.80;;;0.50;;
75280;SDS011;63874;47.230;39.620;2023-04-23T06:06:06;1.83;;;0.30;;
75280;SDS011;63874;47.230;39.620;2023-04-23T06:08:32;2.55;;;0.38;;
75280;SDS011;63874;47.230;39.620;2023-04-23T06:10:57;1.55;;;0.40;;
75280;SDS011;63874;47.230;39.620;2023-04-23T06:13:24;2.25;;;0.60;;
75280;SDS011;63874;47.230;39.620;2023-04-23T06:15:50;1.65;;;0.30;;
75280;SDS011;63874;47.230;39.620;2023-04-23T06:18:16;1.42;;;0.47;;
75280;SDS011;63874;47.230;39.620;2023-04-23T06:20:42;3.47;;;0.47;;
75280;SDS011;63874;47.230;39.620;2023-04-23T06:23:36;1.73;;;0.30;;
75280;SDS011;63874;47.230;39.620;2023-04-23T06:26:02;2.40;;;0.65;;
75280;SDS011;63874;47.230;39.620;2023-04-23T06:28:28;1.90;;;0.35;;
75280;SDS011;63874;47.230;39.620;2023-04-23T06:31:24;1.17;;;0.38;;
75280;SDS011;63874;47.230;39.620;2023-04-23T06:33:51;1.25;;;0.40;;
75280;SDS011;63874;47.230;39.620;2023-04-23T06:36:17;0.88;;;0.40;;
75280;SDS011;63874;47.230;39.620;2023-04-23T06:38:42;1.75;;;0.50;;
75280;SDS011;63874;47.230;39.620;2023-04-23T06:41:09;1.23;;;0.30;;
75280;SDS011;63874;47.230;39.620;2023-04-23T06:43:37;1.10;;;0.30;;
75280;SDS011;63874;47.230;39.620;2023-04-23T06:46:35;1.35;;;0.30;;
75280;SDS011;63874;47.230;39.620;2023-04-23T06:49:01;1.05;;;0.43;;
75280;SDS011;63874;47.230;39.620;2023-04-23T06:51:27;1.23;;;0.40;;
75280;SDS011;63874;47.230;39.620;2023-04-23T06:53:53;1.45;;;0.30;;
75280;SDS011;63874;47.230;39.620;2023-04-23T06:56:19;1.35;;;0.40;;
75280;SDS011;63874;47.230;39.620;2023-04-23T06:58:45;1.20;;;0.52;;
75280;SDS011;63874;47.230;39.620;2023-04-23T07:01:17;1.52;;;0.43;;
75280;SDS011;63874;47.230;39.620;2023-04-23T07:03:43;0.85;;;0.30;;
75280;SDS011;63874;47.230;39.620;2023-04-23T07:06:14;2.97;;;0.40;;
75280;SDS011;63874;47.230;39.620;2023-04-23T07:08:41;1.58;;;0.30;;
75280;SDS011;63874;47.230;39.620;2023-04-23T07:11:09;2.00;;;0.30;;
75280;SDS011;63874;47.230;39.620;2023-04-23T07:13:36;0.73;;;0.20;;
75280;SDS011;63874;47.230;39.620;2023-04-23T07:16:02;1.30;;;0.30;;
75280;SDS011;63874;47.230;39.620;2023-04-23T07:18:28;0.95;;;0.25;;
75280;SDS011;63874;47.230;39.620;2023-04-23T07:20:53;1.45;;;0.20;;
75280;SDS011;63874;47.230;39.620;2023-04-23T07:23:20;0.98;;;0.25;;
75280;SDS011;63874;47.230;39.620;2023-04-23T07:25:46;0.93;;;0.20;;
75280;SDS011;63874;47.230;39.620;2023-04-23T07:28:12;0.70;;;0.28;;
75280;SDS011;63874;47.230;39.620;2023-04-23T07:30:38;1.08;;;0.20;;
75280;SDS011;63874;47.230;39.620;2023-04-23T07:33:03;0.73;;;0.20;;
75280;SDS011;63874;47.230;39.620;2023-04-23T07:35:29;1.35;;;0.30;;
75280;SDS011;63874;47.230;39.620;2023-04-23T07:37:55;1.23;;;0.20;;
75280;SDS011;63874;47.230;39.620;2023-04-23T07:40:22;3.50;;;0.45;;
75280;SDS011;63874;47.230;39.620;2023-04-23T07:42:49;0.85;;;0.30;;
75280;SDS011;63874;47.230;39.620;2023-04-23T07:45:16;2.95;;;0.43;;
75280;SDS011;63874;47.230;39.620;2023-04-23T07:47:42;4.20;;;0.57;;
75280;SDS011;63874;47.230;39.620;2023-04-23T07:50:10;2.35;;;0.45;;
75280;SDS011;63874;47.230;39.620;2023-04-23T07:52:37;1.65;;;0.60;;
75280;SDS011;63874;47.230;39.620;2023-04-23T07:55:04;1.17;;;0.30;;
75280;SDS011;63874;47.230;39.620;2023-04-23T07:57:30;1.55;;;0.63;;
75280;SDS011;63874;47.230;39.620;2023-04-23T07:59:56;1.25;;;0.30;;
75280;SDS011;63874;47.230;39.620;2023-04-23T08:02:22;1.50;;;0.20;;
75280;SDS011;63874;47.230;39.620;2023-04-23T08:04:50;0.90;;;0.20;;
75280;SDS011;63874;47.230;39.620;2023-04-23T08:07:17;0.68;;;0.20;;
75280;SDS011;63874;47.230;39.620;2023-04-23T08:09:43;1.08;;;0.22;;
75280;SDS011;63874;47.230;39.620;2023-04-23T08:12:09;0.90;;;0.40;;
75280;SDS011;63874;47.230;39.620;2023-04-23T08:14:35;0.93;;;0.30;;
75280;SDS011;63874;47.230;39.620;2023-04-23T08:17:04;0.82;;;0.28;;
75280;SDS011;63874;47.230;39.620;2023-04-23T08:19:30;1.75;;;0.30;;
75280;SDS011;63874;47.230;39.620;2023-04-23T08:21:58;1.08;;;0.30;;
75280;SDS011;63874;47.230;39.620;2023-04-23T08:24:24;0.55;;;0.30;;
75280;SDS011;63874;47.230;39.620;2023-04-23T08:26:51;0.90;;;0.30;;
75280;SDS011;63874;47.230;39.620;2023-04-23T08:29:16;0.73;;;0.30;;
75280;SDS011;63874;47.230;39.620;2023-04-23T08:31:42;0.80;;;0.40;;
75280;SDS011;63874;47.230;39.620;2023-04-23T08:34:08;0.80;;;0.20;;
75280;SDS011;63874;47.230;39.620;2023-04-23T08:36:34;0.52;;;0.20;;
75280;SDS011;63874;47.230;39.620;2023-04-23T08:39:00;0.68;;;0.25;;
75280;SDS011;63874;47.230;39.620;2023-04-23T08:41:29;0.88;;;0.63;;
75280;SDS011;63874;47.230;39.620;2023-04-23T08:44:14;0.85;;;0.20;;
75280;SDS011;63874;47.230;39.620;2023-04-23T08:46:43;1.08;;;0.30;;
75280;SDS011;63874;47.230;39.620;2023-04-23T08:49:14;1.13;;;0.22;;
75280;SDS011;63874;47.230;39.620;2023-04-23T08:51:47;1.65;;;0.73;;
75280;SDS011;63874;47.230;39.620;2023-04-23T08:54:34;0.88;;;0.38;;
75280;SDS011;63874;47.230;39.620;2023-04-23T08:57:05;1.00;;;0.45;;
75280;SDS011;63874;47.230;39.620;2023-04-23T08:59:33;1.15;;;0.30;;
75280;SDS011;63874;47.230;39.620;2023-04-23T09:02:00;0.73;;;0.30;;
75280;SDS011;63874;47.230;39.620;2023-04-23T09:04:32;1.00;;;0.40;;
75280;SDS011;63874;47.230;39.620;2023-04-23T09:06:59;1.23;;;0.25;;
75280;SDS011;63874;47.230;39.620;2023-04-23T09:09:25;0.60;;;0.20;;
75280;SDS011;63874;47.230;39.620;2023-04-23T09:11:54;1.42;;;0.20;;
75280;SDS011;63874;47.230;39.620;2023-04-23T09:14:21;1.85;;;0.57;;
75280;SDS011;63874;47.230;39.620;2023-04-23T09:16:49;1.23;;;0.38;;
75280;SDS011;63874;47.230;39.620;2023-04-23T09:19:16;1.25;;;0.35;;
75280;SDS011;63874;47.230;39.620;2023-04-23T09:21:45;0.82;;;0.30;;
75280;SDS011;63874;47.230;39.620;2023-04-23T09:24:11;1.30;;;0.35;;
75280;SDS011;63874;47.230;39.620;2023-04-23T09:26:45;1.65;;;0.55;;
75280;SDS011;63874;47.230;39.620;2023-04-23T09:29:13;1.10;;;0.30;;
75280;SDS011;63874;47.230;39.620;2023-04-23T09:32:05;1.13;;;0.20;;
75280;SDS011;63874;47.230;39.620;2023-04-23T09:34:35;0.95;;;0.20;;
75280;SDS011;63874;47.230;39.620;2023-04-23T09:37:05;0.43;;;0.20;;
75280;SDS011;63874;47.230;39.620;2023-04-23T09:39:35;0.60;;;0.20;;
75280;SDS011;63874;47.230;39.620;2023-04-23T09:42:02;0.90;;;0.20;;
75280;SDS011;63874;47.230;39.620;2023-04-23T09:44:32;0.57;;;0.22;;
75280;SDS011;63874;47.230;39.620;2023-04-23T09:47:06;0.88;;;0.32;;
75280;SDS011;63874;47.230;39.620;2023-04-23T09:49:46;0.50;;;0.22;;
75280;SDS011;63874;47.230;39.620;2023-04-23T09:52:13;1.08;;;0.20;;
75280;SDS011;63874;47.230;39.620;2023-04-23T09:54:39;1.00;;;0.30;;
75280;SDS011;63874;47.230;39.620;2023-04-23T09:57:05;0.40;;;0.20;;
75280;SDS011;63874;47.230;39.620;2023-04-23T09:59:33;1.10;;;0.60;;
75280;SDS011;63874;47.230;39.620;2023-04-23T10:02:03;1.98;;;0.32;;
75280;SDS011;63874;47.230;39.620;2023-04-23T10:04:31;0.55;;;0.25;;
75280;SDS011;63874;47.230;39.620;2023-04-23T10:06:58;0.82;;;0.20;;
75280;SDS011;63874;47.230;39.620;2023-04-23T10:09:27;0.80;;;0.30;;
75280;SDS011;63874;47.230;39.620;2023-04-23T10:11:54;1.35;;;0.38;;
75280;SDS011;63874;47.230;39.620;2023-04-23T10:14:24;1.15;;;0.20;;
75280;SDS011;63874;47.230;39.620;2023-04-23T10:16:52;1.40;;;0.20;;
75280;SDS011;63874;47.230;39.620;2023-04-23T10:19:23;0.93;;;0.20;;
75280;SDS011;63874;47.230;39.620;2023-04-23T10:21:52;1.17;;;0.20;;
75280;SDS011;63874;47.230;39.620;2023-04-23T10:24:33;1.15;;;0.20;;
75280;SDS011;63874;47.230;39.620;2023-04-23T10:27:02;0.95;;;0.20;;
75280;SDS011;63874;47.230;39.620;2023-04-23T10:29:31;0.50;;;0.20;;
75280;SDS011;63874;47.230;39.620;2023-04-23T10:32:01;0.60;;;0.10;;
75280;SDS011;63874;47.230;39.620;2023-04-23T10:34:29;0.90;;;0.30;;
75280;SDS011;63874;47.230;39.620;2023-04-23T10:36:56;0.98;;;0.30;;
75280;SDS011;63874;47.230;39.620;2023-04-23T10:39:25;0.82;;;0.20;;
75280;SDS011;63874;47.230;39.620;2023-04-23T10:41:53;0.52;;;0.20;;
75280;SDS011;63874;47.230;39.620;2023-04-23T10:44:19;1.25;;;0.13;;
75280;SDS011;63874;47.230;39.620;2023-04-23T10:46:52;1.05;;;0.20;;
75280;SDS011;63874;47.230;39.620;2023-04-23T10:49:25;0.70;;;0.40;;
75280;SDS011;63874;47.230;39.620;2023-04-23T10:52:08;1.23;;;0.20;;
75280;SDS011;63874;47.230;39.620;2023-04-23T10:54:39;0.50;;;0.20;;
75280;SDS011;63874;47.230;39.620;2023-04-23T10:57:06;1.60;;;0.40;;
75280;SDS011;63874;47.230;39.620;2023-04-23T10:59:33;0.82;;;0.30;;
75280;SDS011;63874;47.230;39.620;2023-04-23T11:02:11;0.88;;;0.30;;
75280;SDS011;63874;47.230;39.620;2023-04-23T11:04:41;0.55;;;0.10;;
75280;SDS011;63874;47.230;39.620;2023-04-23T11:07:32;0.73;;;0.20;;
75280;SDS011;63874;47.230;39.620;2023-04-23T11:09:58;0.88;;;0.30;;
75280;SDS011;63874;47.230;39.620;2023-04-23T11:12:35;1.85;;;0.57;;
75280;SDS011;63874;47.230;39.620;2023-04-23T11:15:09;0.95;;;0.22;;
75280;SDS011;63874;47.230;39.620;2023-04-23T11:22:33;1.30;;;0.15;;
75280;SDS011;63874;47.230;39.620;2023-04-23T11:25:03;1.02;;;0.20;;
75280;SDS011;63874;47.230;39.620;2023-04-23T11:27:32;2.88;;;0.20;;
75280;SDS011;63874;47.230;39.620;2023-04-23T11:30:02;1.27;;;0.57;;
75280;SDS011;63874;47.230;39.620;2023-04-23T11:32:29;1.90;;;0.20;;
75280;SDS011;63874;47.230;39.620;2023-04-23T11:34:56;1.02;;;0.30;;
75280;SDS011;63874;47.230;39.620;2023-04-23T11:37:24;0.88;;;0.22;;
75280;SDS011;63874;47.230;39.620;2023-04-23T11:39:50;0.75;;;0.20;;
75280;SDS011;63874;47.230;39.620;2023-04-23T11:42:16;0.40;;;0.20;;
75280;SDS011;63874;47.230;39.620;2023-04-23T11:44:44;1.27;;;0.43;;
75280;SDS011;63874;47.230;39.620;2023-04-23T11:47:13;0.98;;;0.35;;
75280;SDS011;63874;47.230;39.620;2023-04-23T11:49:43;1.65;;;0.20;;
75280;SDS011;63874;47.230;39.620;2023-04-23T11:52:10;0.98;;;0.22;;
75280;SDS011;63874;47.230;39.620;2023-04-23T11:54:38;1.35;;;0.25;;
75280;SDS011;63874;47.230;39.620;2023-04-23T11:57:05;0.40;;;0.20;;
75280;SDS011;63874;47.230;39.620;2023-04-23T11:59:31;1.77;;;0.30;;
75280;SDS011;63874;47.230;39.620;2023-04-23T12:01:58;1.27;;;0.20;;
75280;SDS011;63874;47.230;39.620;2023-04-23T12:04:25;1.23;;;0.20;;
75280;SDS011;63874;47.230;39.620;2023-04-23T12:06:53;1.15;;;0.45;;
75280;SDS011;63874;47.230;39.620;2023-04-23T12:09:21;1.02;;;0.20;;
75280;SDS011;63874;47.230;39.620;2023-04-23T12:11:49;0.90;;;0.20;;
75280;SDS011;63874;47.230;39.620;2023-04-23T12:14:18;0.52;;;0.20;;
75280;SDS011;63874;47.230;39.620;2023-04-23T12:16:51;0.70;;;0.20;;
75280;SDS011;63874;47.230;39.620;2023-04-23T12:19:18;0.50;;;0.20;;
75280;SDS011;63874;47.230;39.620;2023-04-23T12:24:21;0.40;;;0.20;;
75280;SDS011;63874;47.230;39.620;2023-04-23T12:26:51;0.73;;;0.30;;
75280;SDS011;63874;47.230;39.620;2023-04-23T12:29:19;0.90;;;0.20;;
75280;SDS011;63874;47.230;39.620;2023-04-23T12:31:47;0.98;;;0.30;;
75280;SDS011;63874;47.230;39.620;2023-04-23T12:34:14;0.30;;;0.10;;
75280;SDS011;63874;47.230;39.620;2023-04-23T12:36:51;0.70;;;0.20;;
75280;SDS011;63874;47.230;39.620;2023-04-23T12:41:50;1.05;;;0.20;;
75280;SDS011;63874;47.230;39.620;2023-04-23T12:44:18;0.80;;;0.22;;
75280;SDS011;63874;47.230;39.620;2023-04-23T12:46:45;0.82;;;0.30;;
75280;SDS011;63874;47.230;39.620;2023-04-23T12:49:15;1.10;;;0.10;;
75280;SDS011;63874;47.230;39.620;2023-04-23T12:51:42;0.68;;;0.17;;
75280;SDS011;63874;47.230;39.620;2023-04-23T12:54:07;1.02;;;0.47;;
75280;SDS011;63874;47.230;39.620;2023-04-23T12:56:33;0.98;;;0.32;;
75280;SDS011;63874;47.230;39.620;2023-04-23T12:59:00;2.10;;;0.47;;
75280;SDS011;63874;47.230;39.620;2023-04-23T13:01:26;1.02;;;0.20;;
75280;SDS011;63874;47.230;39.620;2023-04-23T13:03:52;0.90;;;0.22;;
75280;SDS011;63874;47.230;39.620;2023-04-23T13:06:18;2.55;;;0.30;;
75280;SDS011;63874;47.230;39.620;2023-04-23T13:08:44;1.33;;;0.40;;
75280;SDS011;63874;47.230;39.620;2023-04-23T13:11:10;0.60;;;0.20;;
75280;SDS011;63874;47.230;39.620;2023-04-23T13:13:35;0.60;;;0.20;;
75280;SDS011;63874;47.230;39.620;2023-04-23T13:16:01;1.88;;;0.20;;
75280;SDS011;63874;47.230;39.620;2023-04-23T13:18:27;0.65;;;0.40;;
75280;SDS011;63874;47.230;39.620;2023-04-23T13:20:53;0.40;;;0.20;;
75280;SDS011;63874;47.230;39.620;2023-04-23T13:23:19;1.42;;;0.32;;
75280;SDS011;63874;47.230;39.620;2023-04-23T13:25:45;0.90;;;0.40;;
75280;SDS011;63874;47.230;39.620;2023-04-23T13:28:11;0.60;;;0.13;;
75280;SDS011;63874;47.230;39.620;2023-04-23T13:30:37;0.75;;;0.20;;
75280;SDS011;63874;47.230;39.620;2023-04-23T13:33:03;0.80;;;0.30;;
75280;SDS011;63874;47.230;39.620;2023-04-23T13:35:29;0.55;;;0.20;;
75280;SDS011;63874;47.230;39.620;2023-04-23T13:37:55;0.50;;;0.20;;
75280;SDS011;63874;47.230;39.620;2023-04-23T13:40:21;0.50;;;0.20;;
75280;SDS011;63874;47.230;39.620;2023-04-23T13:42:46;1.67;;;0.30;;
75280;SDS011;63874;47.230;39.620;2023-04-23T13:45:14;2.58;;;0.60;;
75280;SDS011;63874;47.230;39.620;2023-04-23T13:47:40;1.55;;;0.25;;
75280;SDS011;63874;47.230;39.620;2023-04-23T13:50:06;0.63;;;0.20;;
75280;SDS011;63874;47.230;39.620;2023-04-23T13:52:35;1.05;;;0.30;;
75280;SDS011;63874;47.230;39.620;2023-04-23T13:55:01;0.90;;;0.45;;
75280;SDS011;63874;47.230;39.620;2023-04-23T13:57:28;0.98;;;0.30;;
75280;SDS011;63874;47.230;39.620;2023-04-23T13:59:54;2.05;;;0.40;;
75280;SDS011;63874;47.230;39.620;2023-04-23T14:02:20;1.60;;;0.73;;
75280;SDS011;63874;47.230;39.620;2023-04-23T14:04:48;1.25;;;0.43;;
75280;SDS011;63874;47.230;39.620;2023-04-23T14:07:14;0.73;;;0.43;;
75280;SDS011;63874;47.230;39.620;2023-04-23T14:09:40;1.92;;;0.30;;
75280;SDS011;63874;47.230;39.620;2023-04-23T14:12:05;1.08;;;0.20;;
75280;SDS011;63874;47.230;39.620;2023-04-23T14:14:32;1.27;;;0.40;;
75280;SDS011;63874;47.230;39.620;2023-04-23T14:16:58;0.57;;;0.10;;
75280;SDS011;63874;47.230;39.620;2023-04-23T14:19:24;1.52;;;0.30;;
75280;SDS011;63874;47.230;39.620;2023-04-23T14:21:49;1.02;;;0.30;;
75280;SDS011;63874;47.230;39.620;2023-04-23T14:24:22;0.70;;;0.30;;
75280;SDS011;63874;47.230;39.620;2023-04-23T14:26:52;1.02;;;0.20;;
75280;SDS011;63874;47.230;39.620;2023-04-23T14:31:51;0.65;;;0.10;;
75280;SDS011;63874;47.230;39.620;2023-04-23T14:34:17;2.47;;;0.38;;
75280;SDS011;63874;47.230;39.620;2023-04-23T14:36:43;0.68;;;0.30;;
75280;SDS011;63874;47.230;39.620;2023-04-23T14:39:13;1.70;;;0.32;;
75280;SDS011;63874;47.230;39.620;2023-04-23T14:41:39;1.88;;;0.30;;
75280;SDS011;63874;47.230;39.620;2023-04-23T14:44:05;1.00;;;0.40;;
75280;SDS011;63874;47.230;39.620;2023-04-23T14:46:31;1.38;;;0.30;;
75280;SDS011;63874;47.230;39.620;2023-04-23T14:48:57;3.50;;;0.52;;
75280;SDS011;63874;47.230;39.620;2023-04-23T14:51:23;0.60;;;0.20;;